createdAt,value
2022-08-23T00:02:23.122Z,19.43
2022-08-23T00:05:03.428Z,19.42
2022-08-23T00:07:41.360Z,19.28
2022-08-23T00:10:13.657Z,19.29
2022-08-23T00:12:40.587Z,19.30
2022-08-23T00:15:09.797Z,19.34
2022-08-23T00:17:36.890Z,19.33
2022-08-23T00:20:08.331Z,19.31
2022-08-23T00:22:36.382Z,19.30
2022-08-23T00:25:04.702Z,19.41
2022-08-23T00:27:31.510Z,19.38
2022-08-23T00:29:58.406Z,19.35
2022-08-23T00:32:28.960Z,19.28
2022-08-23T00:34:56.672Z,19.20
2022-08-23T00:37:24.768Z,19.19
2022-08-23T00:39:52.222Z,19.08
2022-08-23T00:43:12.529Z,19.21
2022-08-23T00:46:07.627Z,19.14
2022-08-23T00:48:35.756Z,19.16
2022-08-23T00:51:16.180Z,19.11
2022-08-23T00:53:47.823Z,19.28
2022-08-23T00:56:19.921Z,19.18
2022-08-23T00:58:46.960Z,19.23
2022-08-23T01:01:14.498Z,19.21
2022-08-23T01:03:49.752Z,19.06
2022-08-23T01:06:32.533Z,19.06
2022-08-23T01:09:05.232Z,19.04
2022-08-23T01:11:43.566Z,19.07
2022-08-23T01:14:22.048Z,19.01
2022-08-23T01:16:57.528Z,19.08
2022-08-23T01:19:31.789Z,18.97
2022-08-23T01:22:24.223Z,18.87
2022-08-23T01:25:07.227Z,18.84
2022-08-23T01:27:36.018Z,18.84
2022-08-23T01:30:05.326Z,18.88
2022-08-23T01:32:36.162Z,18.90
2022-08-23T01:35:03.547Z,19.04
2022-08-23T01:37:30.148Z,18.96
2022-08-23T01:39:56.754Z,18.95
2022-08-23T01:42:23.449Z,18.83
2022-08-23T01:44:50.161Z,18.78
2022-08-23T01:47:17.397Z,18.72
2022-08-23T01:49:43.957Z,18.78
2022-08-23T01:52:10.511Z,18.81
2022-08-23T01:54:37.048Z,18.88
2022-08-23T01:57:06.288Z,18.95
2022-08-23T01:59:33.960Z,18.88
2022-08-23T02:02:00.571Z,18.86
2022-08-23T02:04:27.824Z,18.81
2022-08-23T02:06:54.361Z,18.90
2022-08-23T02:09:21.533Z,18.86
2022-08-23T02:11:49.108Z,18.83
2022-08-23T02:14:20.555Z,18.86
2022-08-23T02:17:04.046Z,18.88
2022-08-23T02:19:33.389Z,18.69
2022-08-23T02:22:00.482Z,18.75
2022-08-23T02:24:27.249Z,18.62
2022-08-23T02:26:57.196Z,18.69
2022-08-23T02:29:25.807Z,18.63
2022-08-23T02:31:53.234Z,18.58
2022-08-23T02:37:04.697Z,18.60
2022-08-23T02:39:31.652Z,18.56
2022-08-23T02:41:58.216Z,18.57
2022-08-23T02:44:24.868Z,18.58
2022-08-23T02:46:51.509Z,18.56
2022-08-23T02:49:19.167Z,18.50
2022-08-23T02:51:46.318Z,18.42
2022-08-23T02:54:13.258Z,18.42
2022-08-23T02:56:40.282Z,18.55
2022-08-23T02:59:07.598Z,18.47
2022-08-23T03:01:37.164Z,18.50
2022-08-23T03:04:06.306Z,18.47
2022-08-23T03:06:33.038Z,18.47
2022-08-23T03:08:59.993Z,18.47
2022-08-23T03:11:26.687Z,18.43
2022-08-23T03:13:54.673Z,18.34
2022-08-23T03:16:21.457Z,18.51
2022-08-23T03:18:49.093Z,18.37
2022-08-23T03:21:16.695Z,18.38
2022-08-23T03:23:43.424Z,18.34
2022-08-23T03:26:11.923Z,18.19
2022-08-23T03:28:40.729Z,18.22
2022-08-23T03:31:08.903Z,18.18
2022-08-23T03:33:35.927Z,18.26
2022-08-23T03:36:06.621Z,18.27
2022-08-23T03:38:34.385Z,18.24
2022-08-23T03:41:01.608Z,18.07
2022-08-23T03:43:28.626Z,18.14
2022-08-23T03:45:55.391Z,18.06
2022-08-23T03:48:22.631Z,18.06
2022-08-23T03:50:49.383Z,17.95
2022-08-23T03:53:16.474Z,17.83
2022-08-23T03:55:43.739Z,17.84
2022-08-23T03:58:11.497Z,17.95
2022-08-23T04:00:39.167Z,17.84
2022-08-23T04:03:06.276Z,17.81
2022-08-23T04:05:33.116Z,17.84
2022-08-23T04:08:01.567Z,17.80
2022-08-23T04:10:28.402Z,17.81
2022-08-23T04:12:55.094Z,17.90
2022-08-23T04:15:22.757Z,17.91
2022-08-23T04:17:49.323Z,17.88
2022-08-23T04:20:16.223Z,17.77
2022-08-23T04:22:42.871Z,17.89
2022-08-23T04:25:34.419Z,17.98
2022-08-23T04:27:59.807Z,18.02
2022-08-23T04:30:27.108Z,18.05
2022-08-23T04:32:53.647Z,18.11
2022-08-23T04:35:21.186Z,17.98
2022-08-23T04:37:47.748Z,18.09
2022-08-23T04:40:32.984Z,18.06
2022-08-23T04:42:59.567Z,18.07
2022-08-23T04:45:27.236Z,18.06
2022-08-23T04:47:54.412Z,18.07
2022-08-23T04:50:21.874Z,18.11
2022-08-23T04:52:48.466Z,18.03
2022-08-23T04:55:15.691Z,17.99
2022-08-23T04:57:42.833Z,18.02
2022-08-23T05:00:12.823Z,17.91
2022-08-23T05:02:39.804Z,17.97
2022-08-23T05:05:08.051Z,17.97
2022-08-23T05:07:42.523Z,17.88
2022-08-23T05:10:12.815Z,17.96
2022-08-23T05:12:40.176Z,18.05
2022-08-23T05:15:07.729Z,17.91
2022-08-23T05:17:34.264Z,17.92
2022-08-23T05:20:01.090Z,17.99
2022-08-23T05:22:27.663Z,18.05
2022-08-23T05:24:54.189Z,18.21
2022-08-23T05:27:20.724Z,18.28
2022-08-23T05:29:47.304Z,18.30
2022-08-23T05:32:13.834Z,18.32
2022-08-23T05:34:42.148Z,18.39
2022-08-23T05:37:08.688Z,18.42
2022-08-23T05:39:37.139Z,18.44
2022-08-23T05:42:05.490Z,18.41
2022-08-23T05:44:36.453Z,18.55
2022-08-23T05:47:05.135Z,18.63
2022-08-23T05:49:38.188Z,18.67
2022-08-23T05:52:06.351Z,18.67
2022-08-23T05:54:33.291Z,18.68
2022-08-23T05:56:59.986Z,18.82
2022-08-23T05:59:26.506Z,18.67
2022-08-23T06:01:53.159Z,18.82
2022-08-23T06:04:20.072Z,18.80
2022-08-23T06:06:48.331Z,18.83
2022-08-23T06:09:17.232Z,18.78
2022-08-23T06:11:45.815Z,18.85
2022-08-23T06:14:13.062Z,18.89
2022-08-23T06:16:43.818Z,19.06
2022-08-23T06:19:10.834Z,19.05
2022-08-23T06:21:38.628Z,18.96
2022-08-23T06:24:05.484Z,19.00
2022-08-23T06:26:34.724Z,19.18
2022-08-23T06:29:04.835Z,19.16
2022-08-23T06:31:47.483Z,19.30
2022-08-23T06:34:20.034Z,19.42
2022-08-23T06:36:53.691Z,19.67
2022-08-23T06:39:22.781Z,19.80
2022-08-23T06:41:50.291Z,19.91
2022-08-23T06:44:18.576Z,20.10
2022-08-23T06:46:46.727Z,20.11
2022-08-23T06:49:13.804Z,20.17
2022-08-23T06:51:43.646Z,20.27
2022-08-23T06:54:13.377Z,20.15
2022-08-23T06:56:41.286Z,20.37
2022-08-23T06:59:08.827Z,20.45
2022-08-23T07:01:52.592Z,20.51
2022-08-23T07:04:32.794Z,20.59
2022-08-23T07:07:01.592Z,20.74
2022-08-23T07:09:29.165Z,20.86
2022-08-23T07:11:56.218Z,20.90
2022-08-23T07:14:23.627Z,20.93
2022-08-23T07:16:53.237Z,21.07
2022-08-23T07:19:22.390Z,21.09
2022-08-23T07:21:56.637Z,21.20
2022-08-23T07:24:23.425Z,21.16
2022-08-23T07:26:52.198Z,21.09
2022-08-23T07:29:21.056Z,21.10
2022-08-23T07:31:56.423Z,21.11
2022-08-23T07:34:24.901Z,21.13
2022-08-23T07:36:52.928Z,21.27
2022-08-23T07:39:20.813Z,21.34
2022-08-23T07:41:47.859Z,21.51
2022-08-23T07:44:17.997Z,21.67
2022-08-23T07:46:46.272Z,21.84
2022-08-23T07:49:13.851Z,21.95
2022-08-23T07:51:42.460Z,22.08
2022-08-23T07:54:11.430Z,22.25
2022-08-23T07:56:38.100Z,22.30
2022-08-23T07:59:06.145Z,22.39
2022-08-23T08:01:32.883Z,22.46
2022-08-23T08:04:02.147Z,22.54
2022-08-23T08:06:35.178Z,22.59
2022-08-23T08:09:03.874Z,22.72
2022-08-23T08:11:35.184Z,22.79
2022-08-23T08:14:07.572Z,22.75
2022-08-23T08:16:40.983Z,22.88
2022-08-23T08:19:11.276Z,23.04
2022-08-23T08:21:41.936Z,23.07
2022-08-23T08:24:11.336Z,23.20
2022-08-23T08:26:38.084Z,23.30
2022-08-23T08:29:06.252Z,23.30
2022-08-23T08:31:32.962Z,23.43
2022-08-23T08:33:59.616Z,23.45
2022-08-23T08:36:44.491Z,23.48
2022-08-23T08:39:14.832Z,23.47
2022-08-23T08:42:04.984Z,23.62
2022-08-23T08:44:37.562Z,23.74
2022-08-23T08:47:14.008Z,23.89
2022-08-23T08:49:48.284Z,24.00
2022-08-23T08:52:25.978Z,24.11
2022-08-23T08:55:12.560Z,24.11
2022-08-23T08:57:42.501Z,24.21
2022-08-23T09:00:17.588Z,24.24
2022-08-23T09:02:45.281Z,24.34
2022-08-23T09:05:18.057Z,24.38
2022-08-23T09:07:53.164Z,24.44
2022-08-23T09:10:44.256Z,24.38
2022-08-23T09:13:23.324Z,24.36
2022-08-23T09:16:08.660Z,24.51
2022-08-23T09:18:36.148Z,24.51
2022-08-23T09:21:06.999Z,24.51
2022-08-23T09:23:36.570Z,24.63
2022-08-23T09:26:15.669Z,24.52
2022-08-23T09:28:46.045Z,24.69
2022-08-23T09:31:35.855Z,24.57
2022-08-23T09:34:02.906Z,24.66
2022-08-23T09:36:34.250Z,24.80
2022-08-23T09:39:05.601Z,24.77
2022-08-23T09:41:36.733Z,24.90
2022-08-23T09:44:06.696Z,24.99
2022-08-23T09:46:42.090Z,24.91
2022-08-23T09:49:30.153Z,25.01
2022-08-23T09:52:00.684Z,24.98
2022-08-23T09:54:33.095Z,24.78
2022-08-23T09:57:06.074Z,24.77
2022-08-23T09:59:43.900Z,24.98
2022-08-23T10:02:28.333Z,25.04
2022-08-23T10:05:07.907Z,24.86
2022-08-23T10:07:43.132Z,25.00
2022-08-23T10:10:49.092Z,25.13
2022-08-23T10:13:18.226Z,25.08
2022-08-23T10:15:59.213Z,25.28
2022-08-23T10:18:39.695Z,25.25
2022-08-23T10:21:18.972Z,25.23
2022-08-23T10:23:57.249Z,25.29
2022-08-23T10:26:33.002Z,25.33
2022-08-23T10:29:36.889Z,25.48
2022-08-23T10:32:10.487Z,25.59
2022-08-23T10:34:49.898Z,25.53
2022-08-23T10:37:36.178Z,25.66
2022-08-23T10:40:04.169Z,25.65
2022-08-23T10:42:37.386Z,25.54
2022-08-23T10:45:11.364Z,25.71
2022-08-23T10:47:46.088Z,25.92
2022-08-23T10:50:20.049Z,25.92
2022-08-23T10:53:19.996Z,25.96
2022-08-23T10:56:03.241Z,26.02
2022-08-23T10:58:41.240Z,26.05
2022-08-23T11:01:09.574Z,26.02
2022-08-23T11:03:44.128Z,26.04
2022-08-23T11:06:26.711Z,26.06
2022-08-23T11:09:06.195Z,26.25
2022-08-23T11:11:43.315Z,26.35
2022-08-23T11:14:25.397Z,26.21
2022-08-23T11:16:58.497Z,26.36
2022-08-23T11:19:49.080Z,26.26
2022-08-23T11:22:17.716Z,26.32
2022-08-23T11:24:57.706Z,26.23
2022-08-23T11:27:34.783Z,26.13
2022-08-23T11:30:32.519Z,26.26
2022-08-23T11:33:08.580Z,26.36
2022-08-23T11:35:53.035Z,26.38
2022-08-23T11:38:48.215Z,26.41
2022-08-23T11:41:14.799Z,26.36
2022-08-23T11:43:44.035Z,26.39
2022-08-23T11:46:16.734Z,26.36
2022-08-23T11:48:55.697Z,26.29
2022-08-23T11:51:37.489Z,26.24
2022-08-23T11:54:46.272Z,26.42
2022-08-23T11:57:47.922Z,26.40
2022-08-23T12:00:29.228Z,26.45
2022-08-23T12:03:04.487Z,26.48
2022-08-23T12:05:34.116Z,26.34
2022-08-23T12:08:04.084Z,26.45
2022-08-23T12:10:43.396Z,26.50
2022-08-23T12:13:22.431Z,26.51
2022-08-23T12:16:16.675Z,26.59
2022-08-23T12:18:53.396Z,26.70
2022-08-23T12:21:31.202Z,26.82
2022-08-23T12:24:22.370Z,26.73
2022-08-23T12:26:59.166Z,26.65
2022-08-23T12:29:43.903Z,26.73
2022-08-23T12:32:39.506Z,26.85
2022-08-23T12:35:19.052Z,26.72
2022-08-23T12:38:03.150Z,26.76
2022-08-23T12:40:34.287Z,26.77
2022-08-23T12:43:11.799Z,26.72
2022-08-23T12:45:54.247Z,26.88
2022-08-23T12:48:25.197Z,26.75
2022-08-23T12:51:06.566Z,26.73
2022-08-23T12:53:44.781Z,26.82
2022-08-23T12:56:26.763Z,26.81
2022-08-23T12:59:04.855Z,26.79
2022-08-23T13:01:35.841Z,26.83
2022-08-23T13:04:12.829Z,26.94
2022-08-23T13:06:51.437Z,26.82
2022-08-23T13:09:36.921Z,26.94
2022-08-23T13:12:06.382Z,26.97
2022-08-23T13:14:40.418Z,26.81
2022-08-23T13:17:26.967Z,26.78
2022-08-23T13:20:02.614Z,26.82
2022-08-23T13:22:31.189Z,26.82
2022-08-23T13:25:24.613Z,26.87
2022-08-23T13:27:46.297Z,26.85
2022-08-23T13:30:12.743Z,26.83
2022-08-23T13:32:48.197Z,26.88
2022-08-23T13:35:31.722Z,26.85
2022-08-23T13:38:06.643Z,26.86
2022-08-23T13:40:41.368Z,26.91
2022-08-23T13:43:12.053Z,26.95
2022-08-23T13:45:50.443Z,26.94
2022-08-23T13:48:27.451Z,27.02
2022-08-23T13:50:54.831Z,27.07
2022-08-23T13:53:22.470Z,27.05
2022-08-23T13:55:55.127Z,26.97
2022-08-23T13:58:33.849Z,27.03
2022-08-23T14:01:02.496Z,26.98
2022-08-23T14:03:34.274Z,27.10
2022-08-23T14:06:00.840Z,27.04
2022-08-23T14:08:27.356Z,27.09
2022-08-23T14:10:54.395Z,27.05
2022-08-23T14:13:24.951Z,27.10
2022-08-23T14:15:56.712Z,27.07
2022-08-23T14:18:25.710Z,27.12
2022-08-23T14:20:52.408Z,26.88
2022-08-23T14:23:19.269Z,26.99
2022-08-23T14:25:47.293Z,27.05
2022-08-23T14:28:13.860Z,27.02
2022-08-23T14:30:40.592Z,27.03
2022-08-23T14:33:07.440Z,27.03
2022-08-23T14:35:34.116Z,27.13
2022-08-23T14:38:03.323Z,27.15
2022-08-23T14:40:30.654Z,27.18
2022-08-23T14:42:57.410Z,27.22
2022-08-23T14:45:24.115Z,27.22
2022-08-23T14:47:50.691Z,27.30
2022-08-23T14:50:17.297Z,27.27
2022-08-23T14:52:46.428Z,27.28
2022-08-23T14:55:14.770Z,27.24
2022-08-23T14:57:41.958Z,27.22
2022-08-23T15:00:13.917Z,27.33
2022-08-23T15:02:44.612Z,27.37
2022-08-23T15:05:13.238Z,27.34
2022-08-23T15:07:40.073Z,27.22
2022-08-23T15:10:09.854Z,27.26
2022-08-23T15:15:23.860Z,27.49
2022-08-23T15:18:03.755Z,27.40
2022-08-23T15:20:34.229Z,27.34
2022-08-23T15:23:01.159Z,27.15
2022-08-23T15:25:33.787Z,27.27
2022-08-23T15:28:02.087Z,27.21
2022-08-23T15:30:30.354Z,27.35
2022-08-23T15:33:00.608Z,27.27
2022-08-23T15:35:28.711Z,27.34
2022-08-23T15:37:56.635Z,27.35
2022-08-23T15:40:25.301Z,27.24
2022-08-23T15:42:52.056Z,27.26
2022-08-23T15:45:18.620Z,27.23
2022-08-23T15:47:55.662Z,27.02
2022-08-23T15:50:24.941Z,27.10
2022-08-23T15:52:52.194Z,27.01
2022-08-23T15:55:19.780Z,26.95
2022-08-23T15:57:50.425Z,26.86
2022-08-23T16:00:18.856Z,26.86
2022-08-23T16:03:12.623Z,26.89
2022-08-23T16:05:32.261Z,26.71
2022-08-23T16:07:59.871Z,26.74
2022-08-23T16:10:28.319Z,26.81
2022-08-23T16:12:55.328Z,26.74
2022-08-23T16:15:22.219Z,26.75
2022-08-23T16:17:48.807Z,26.60
2022-08-23T16:20:15.652Z,26.61
2022-08-23T16:22:42.320Z,26.61
2022-08-23T16:25:09.144Z,26.59
2022-08-23T16:27:36.497Z,26.62
2022-08-23T16:30:05.714Z,26.62
2022-08-23T16:32:32.295Z,26.46
2022-08-23T16:34:58.852Z,26.32
2022-08-23T16:37:25.761Z,26.31
2022-08-23T16:39:52.406Z,26.26
2022-08-23T16:42:19.168Z,26.23
2022-08-23T16:44:45.724Z,26.18
2022-08-23T16:47:13.119Z,26.16
2022-08-23T16:49:40.288Z,26.08
2022-08-23T16:52:07.042Z,26.15
2022-08-23T16:54:33.567Z,25.97
2022-08-23T16:57:00.409Z,25.96
2022-08-23T16:59:26.955Z,25.91
2022-08-23T17:01:57.160Z,25.87
2022-08-23T17:04:30.618Z,25.83
2022-08-23T17:06:58.684Z,25.73
2022-08-23T17:09:27.700Z,25.71
2022-08-23T17:11:55.155Z,25.66
2022-08-23T17:14:24.122Z,25.67
2022-08-23T17:16:50.955Z,25.61
2022-08-23T17:19:17.555Z,25.42
2022-08-23T17:21:44.909Z,25.32
2022-08-23T17:24:11.420Z,25.28
2022-08-23T17:26:38.051Z,25.36
2022-08-23T17:29:04.966Z,25.24
2022-08-23T17:31:31.729Z,25.08
2022-08-23T17:34:03.214Z,25.16
2022-08-23T17:36:41.112Z,25.09
2022-08-23T17:39:10.718Z,25.00
2022-08-23T17:41:40.046Z,25.00
2022-08-23T17:44:09.063Z,24.88
2022-08-23T17:46:40.850Z,24.68
2022-08-23T17:49:07.923Z,24.68
2022-08-23T17:51:36.776Z,24.70
2022-08-23T17:54:04.347Z,24.52
2022-08-23T17:56:31.015Z,24.62
2022-08-23T17:58:57.585Z,24.52
2022-08-23T18:01:24.383Z,24.42
2022-08-23T18:03:51.440Z,24.27
2022-08-23T18:06:18.574Z,24.22
2022-08-23T18:08:46.256Z,24.34
2022-08-23T18:11:14.195Z,24.11
2022-08-23T18:13:42.508Z,24.07
2022-08-23T18:16:09.197Z,24.08
2022-08-23T18:18:36.092Z,23.99
2022-08-23T18:21:07.742Z,23.77
2022-08-23T18:23:35.083Z,23.71
2022-08-23T18:26:29.754Z,23.63
2022-08-23T18:28:57.351Z,23.71
2022-08-23T18:31:24.722Z,23.14
2022-08-23T18:33:51.340Z,22.81
2022-08-23T18:36:17.955Z,22.61
2022-08-23T18:38:46.147Z,22.46
2022-08-23T18:41:16.763Z,22.33
2022-08-23T18:43:44.316Z,22.32
2022-08-23T18:46:16.668Z,22.29
2022-08-23T18:48:43.346Z,22.24
2022-08-23T18:51:19.932Z,22.17
2022-08-23T18:53:47.001Z,22.25
2022-08-23T18:56:13.586Z,22.20
2022-08-23T18:58:40.110Z,22.20
2022-08-23T19:01:27.911Z,22.14
2022-08-23T19:03:56.537Z,22.01
2022-08-23T19:06:23.926Z,22.01
2022-08-23T19:08:51.737Z,21.99
2022-08-23T19:11:20.055Z,21.80
2022-08-23T19:13:47.962Z,21.87
2022-08-23T19:16:16.126Z,21.82
2022-08-23T19:18:46.167Z,21.67
2022-08-23T19:21:18.868Z,21.59
2022-08-23T19:23:46.823Z,21.74
2022-08-23T19:26:16.405Z,21.52
2022-08-23T19:28:43.743Z,21.55
2022-08-23T19:31:12.157Z,21.66
2022-08-23T19:33:41.839Z,21.52
2022-08-23T19:36:23.642Z,21.23
2022-08-23T19:38:57.399Z,21.42
2022-08-23T19:41:24.837Z,21.49
2022-08-23T19:43:52.495Z,21.50
2022-08-23T19:46:20.368Z,21.27
2022-08-23T19:48:50.373Z,21.12
2022-08-23T19:51:21.131Z,21.05
2022-08-23T19:54:11.049Z,21.10
2022-08-23T19:56:59.823Z,21.23
2022-08-23T19:59:31.712Z,21.16
2022-08-23T20:02:00.015Z,21.19
2022-08-23T20:04:29.994Z,20.88
2022-08-23T20:06:58.017Z,20.94
2022-08-23T20:09:26.387Z,20.88
2022-08-23T20:11:52.943Z,20.76
2022-08-23T20:14:21.894Z,20.57
2022-08-23T20:16:48.964Z,20.63
2022-08-23T20:19:16.101Z,20.55
2022-08-23T20:21:43.195Z,20.61
2022-08-23T20:24:12.640Z,20.53
2022-08-23T20:26:42.366Z,20.52
2022-08-23T20:29:14.371Z,20.50
2022-08-23T20:31:49.522Z,20.43
2022-08-23T20:34:16.516Z,20.45
2022-08-23T20:36:43.660Z,20.42
2022-08-23T20:39:10.415Z,20.43
2022-08-23T20:41:38.840Z,20.37
2022-08-23T20:44:06.936Z,20.16
2022-08-23T20:46:33.719Z,20.37
2022-08-23T20:49:00.761Z,20.19
2022-08-23T20:51:28.597Z,20.10
2022-08-23T20:53:56.212Z,20.10
2022-08-23T20:56:23.559Z,20.25
2022-08-23T20:58:50.887Z,20.14
2022-08-23T21:01:18.587Z,20.29
2022-08-23T21:03:45.592Z,20.13
2022-08-23T21:06:20.131Z,20.30
2022-08-23T21:08:53.413Z,20.19
2022-08-23T21:11:22.084Z,20.00
2022-08-23T21:13:49.518Z,20.01
2022-08-23T21:16:17.310Z,20.11
2022-08-23T21:18:44.324Z,19.97
2022-08-23T21:21:11.367Z,20.03
2022-08-23T21:23:38.765Z,20.09
2022-08-23T21:26:06.493Z,19.84
2022-08-23T21:28:33.306Z,19.77
2022-08-23T21:31:15.841Z,19.91
2022-08-23T21:33:43.130Z,19.80
2022-08-23T21:36:10.291Z,19.81
2022-08-23T21:38:37.370Z,19.90
2022-08-23T21:41:07.827Z,19.78
2022-08-23T21:43:39.171Z,19.81
2022-08-23T21:46:07.300Z,19.72
2022-08-23T21:48:34.402Z,19.48
2022-08-23T21:51:01.267Z,19.55
2022-08-23T21:53:27.954Z,19.45
2022-08-23T21:55:54.494Z,19.43
2022-08-23T21:58:21.029Z,19.26
2022-08-23T22:00:48.010Z,19.19
2022-08-23T22:03:14.723Z,19.22
2022-08-23T22:05:43.732Z,19.26
2022-08-23T22:08:14.428Z,19.03
2022-08-23T22:10:48.146Z,19.29
2022-08-23T22:13:24.883Z,19.16
2022-08-23T22:15:51.503Z,19.14
2022-08-23T22:18:18.161Z,19.12
2022-08-23T22:20:44.688Z,19.21
2022-08-23T22:23:11.438Z,19.16
2022-08-23T22:25:38.085Z,19.15
2022-08-23T22:28:04.673Z,19.16
2022-08-23T22:30:31.228Z,19.19
2022-08-23T22:32:57.790Z,19.16
2022-08-23T22:35:24.375Z,19.31
2022-08-23T22:38:12.343Z,19.33
2022-08-23T22:40:37.499Z,19.38
2022-08-23T22:43:04.068Z,19.42
2022-08-23T22:45:30.620Z,19.38
2022-08-23T22:47:57.248Z,19.40
2022-08-23T22:50:23.840Z,19.43
2022-08-23T22:52:50.901Z,19.49
2022-08-23T22:55:17.737Z,19.58
2022-08-23T22:57:44.311Z,19.63
2022-08-23T23:00:11.530Z,19.61
2022-08-23T23:02:38.948Z,19.60
2022-08-23T23:05:07.944Z,19.75
2022-08-23T23:07:52.886Z,19.80
2022-08-23T23:10:19.544Z,19.75
2022-08-23T23:12:46.464Z,19.81
2022-08-23T23:15:13.166Z,19.87
2022-08-23T23:17:39.908Z,19.95
2022-08-23T23:20:25.560Z,19.83
2022-08-23T23:22:52.162Z,19.88
2022-08-23T23:25:18.974Z,19.82
2022-08-23T23:27:45.587Z,19.86
2022-08-23T23:30:12.948Z,19.74
2022-08-23T23:32:39.675Z,19.66
2022-08-23T23:35:09.446Z,19.75
2022-08-23T23:37:36.118Z,19.78
2022-08-23T23:40:03.686Z,19.77
2022-08-23T23:42:30.245Z,19.74
2022-08-23T23:44:56.768Z,19.78
2022-08-23T23:47:23.406Z,19.76
2022-08-23T23:49:50.596Z,19.79
2022-08-23T23:52:17.285Z,19.79
2022-08-23T23:54:43.902Z,19.82
2022-08-23T23:57:10.431Z,19.82
2022-08-23T23:59:37.060Z,19.80
